Terminal Aerodrome Forecast
Issued by NWS Wilmington, OH

Current Version | Previous Version | Graphics & Text | Print | Product List | Glossary On
Versions: 1 2 3 4 5 6 7 8 9 10 11 12 13 14 15 16
000
FTUS41 KILN 151746 AAA
TAFCMH
TAF AMD
KCMH 151746Z 1518/1618 27004KT P6SM BKN040
     FM160100 VRB03KT P6SM FEW200
     FM160700 00000KT 5SM BR FEW200
     FM161100 00000KT 2SM BR SCT090
     FM161400 00000KT P6SM BKN050=

USA.gov is the U.S. government's official web portal to all federal, state and local government web resources and services.